Paris, Tennessee
Current Conditions -  °F | °C
As of 11:55 PM on Thursday 18 Dec 2014 (Local Time) from KPHT Reporting Station
Overcast Overcast  
Wind Chill: 30°   Ceiling: 5000
Heat Index: 34°   Visibility: 10mi
Dew Point: 28°   Wind: 5mph
Humidity: 81%   Direction: 360°N
Pressure: 30.25"   Gusts: NA
Location:  36.3°N, 88.32°W
Report Text: KPHT 190555Z AUTO 36004KT 10SM OVC050 01/M02 A3025 RMK
Loading
Personal Weather Stations






























Interactive Weather Map New forecast layout! Learn more

10-Day Weather Forecast

Advertisements
Track Severe Weather on mobile